createdAt,value
2023-03-10T00:00:21.516Z,18.90
2023-03-10T00:03:29.286Z,18.90
2023-03-10T00:06:37.029Z,18.10
2023-03-10T00:09:45.037Z,19.70
2023-03-10T00:12:52.736Z,17.50
2023-03-10T00:16:00.317Z,20.70
2023-03-10T00:19:07.983Z,18.40
2023-03-10T00:22:15.807Z,18.50
2023-03-10T00:25:23.445Z,20.00
2023-03-10T00:28:31.100Z,20.40
2023-03-10T00:31:39.006Z,18.00
2023-03-10T00:34:46.108Z,19.50
2023-03-10T00:37:53.677Z,18.10
2023-03-10T00:41:01.306Z,21.20
2023-03-10T00:44:08.826Z,19.20
2023-03-10T00:47:16.165Z,20.50
2023-03-10T00:50:24.227Z,20.50
2023-03-10T00:53:31.371Z,20.90
2023-03-10T00:56:39.181Z,20.10
2023-03-10T00:59:50.706Z,20.40
2023-03-10T01:02:47.260Z,21.00
2023-03-10T01:05:55.092Z,22.20
2023-03-10T01:09:02.921Z,22.10
2023-03-10T01:12:10.098Z,21.40
2023-03-10T01:15:17.869Z,25.80
2023-03-10T01:18:25.526Z,20.30
2023-03-10T01:21:33.047Z,20.40
2023-03-10T01:24:40.669Z,21.20
2023-03-10T01:27:48.229Z,21.60
2023-03-10T01:30:55.897Z,23.10
2023-03-10T01:34:03.460Z,21.60
2023-03-10T01:37:10.931Z,21.50
2023-03-10T01:40:18.683Z,23.70
2023-03-10T01:43:25.782Z,23.50
2023-03-10T01:46:33.749Z,21.30
2023-03-10T01:49:41.288Z,22.60
2023-03-10T01:52:48.383Z,23.90
2023-03-10T01:55:56.228Z,22.00
2023-03-10T01:59:03.445Z,23.30
2023-03-10T02:02:10.602Z,22.00
2023-03-10T02:05:18.500Z,23.50
2023-03-10T02:08:26.048Z,22.60
2023-03-10T02:11:33.669Z,23.20
2023-03-10T02:14:41.611Z,23.80
2023-03-10T02:17:49.026Z,23.30
2023-03-10T02:20:56.577Z,23.70
2023-03-10T02:24:03.896Z,21.80
2023-03-10T02:27:11.616Z,24.90
2023-03-10T02:30:18.993Z,19.90
2023-03-10T02:33:26.387Z,22.00
2023-03-10T02:36:34.427Z,21.90
2023-03-10T02:39:41.850Z,21.60
2023-03-10T02:42:49.240Z,20.40
2023-03-10T02:45:57.111Z,23.30
2023-03-10T02:49:04.324Z,20.20
2023-03-10T02:52:12.054Z,20.50
2023-03-10T02:55:20.136Z,19.10
2023-03-10T02:58:27.156Z,21.90
2023-03-10T03:01:34.828Z,21.00
2023-03-10T03:04:42.695Z,21.50
2023-03-10T03:07:49.882Z,24.00
2023-03-10T03:10:57.606Z,18.70
2023-03-10T03:14:05.631Z,19.30
2023-03-10T03:17:12.688Z,19.50
2023-03-10T03:20:20.469Z,19.60
2023-03-10T03:23:27.865Z,20.40
2023-03-10T03:26:35.301Z,21.30
2023-03-10T03:29:43.158Z,19.30
2023-03-10T03:32:50.628Z,19.50
2023-03-10T03:35:58.116Z,20.40
2023-03-10T03:39:05.848Z,20.40
2023-03-10T03:42:13.344Z,20.40
2023-03-10T03:45:21.861Z,21.20
2023-03-10T03:48:29.204Z,18.20
2023-03-10T03:51:37.310Z,17.30
2023-03-10T03:54:45.280Z,19.20
2023-03-10T03:57:52.689Z,19.00
2023-03-10T04:01:00.754Z,17.10
2023-03-10T04:04:08.598Z,17.30
2023-03-10T04:07:15.957Z,20.80
2023-03-10T04:10:23.774Z,21.20
2023-03-10T04:13:32.116Z,17.80
2023-03-10T04:16:39.389Z,17.30
2023-03-10T04:19:54.173Z,18.40
2023-03-10T04:22:52.351Z,18.40
2023-03-10T04:25:59.992Z,18.40
2023-03-10T04:29:07.755Z,20.40
2023-03-10T04:32:15.277Z,16.30
2023-03-10T04:35:22.875Z,17.30
2023-03-10T04:38:30.684Z,17.30
2023-03-10T04:41:37.884Z,15.30
2023-03-10T04:44:45.669Z,15.50
2023-03-10T04:47:53.409Z,16.40
2023-03-10T04:51:01.445Z,15.50
2023-03-10T04:54:08.902Z,15.10
2023-03-10T04:57:16.649Z,14.40
2023-03-10T05:00:24.468Z,15.20
2023-03-10T05:03:32.191Z,12.10
2023-03-10T05:06:39.765Z,15.10
2023-03-10T05:09:47.875Z,12.50
2023-03-10T05:12:55.323Z,14.70
2023-03-10T05:16:03.087Z,11.40
2023-03-10T05:19:10.725Z,12.80
2023-03-10T05:22:17.986Z,13.60
2023-03-10T05:25:25.853Z,12.60
2023-03-10T05:28:34.024Z,12.80
2023-03-10T05:31:41.261Z,12.00
2023-03-10T05:34:49.651Z,12.30
2023-03-10T05:37:57.790Z,12.90
2023-03-10T05:41:05.061Z,13.30
2023-03-10T05:44:12.981Z,11.80
2023-03-10T05:47:20.479Z,13.50
2023-03-10T05:50:28.141Z,11.80
2023-03-10T05:53:35.971Z,12.20
2023-03-10T05:56:43.437Z,13.80
2023-03-10T05:59:51.068Z,12.20
2023-03-10T06:02:58.587Z,13.90
2023-03-10T06:06:06.239Z,12.90
2023-03-10T06:09:13.868Z,11.80
2023-03-10T06:12:20.991Z,12.40
2023-03-10T06:15:28.830Z,13.20
2023-03-10T06:18:36.415Z,12.40
2023-03-10T06:21:43.830Z,11.40
2023-03-10T06:24:51.627Z,12.10
2023-03-10T06:27:59.119Z,12.10
2023-03-10T06:31:06.505Z,12.30
2023-03-10T06:34:14.384Z,11.70
2023-03-10T06:37:21.533Z,11.70
2023-03-10T06:40:29.427Z,12.40
2023-03-10T06:43:37.215Z,12.40
2023-03-10T06:46:44.411Z,12.90
2023-03-10T06:49:52.472Z,13.30
2023-03-10T06:53:00.260Z,12.20
2023-03-10T06:56:07.949Z,13.10
2023-03-10T06:59:15.280Z,13.10
2023-03-10T07:02:23.009Z,12.20
2023-03-10T07:05:30.360Z,12.20
2023-03-10T07:08:37.589Z,12.20
2023-03-10T07:11:45.009Z,14.40
2023-03-10T07:14:52.468Z,11.70
2023-03-10T07:17:59.942Z,13.20
2023-03-10T07:21:07.118Z,12.10
2023-03-10T07:24:14.901Z,11.50
2023-03-10T07:27:22.539Z,12.20
2023-03-10T07:30:29.986Z,12.30
2023-03-10T07:33:37.791Z,12.90
2023-03-10T07:36:45.221Z,12.20
2023-03-10T07:39:52.831Z,13.90
2023-03-10T07:43:00.895Z,14.40
2023-03-10T07:46:08.090Z,15.30
2023-03-10T07:49:15.866Z,15.60
2023-03-10T07:52:23.696Z,16.30
2023-03-10T07:55:30.847Z,15.00
2023-03-10T07:58:39.395Z,15.10
2023-03-10T08:01:47.246Z,16.50
2023-03-10T08:04:54.393Z,14.30
2023-03-10T08:08:02.088Z,15.30
2023-03-10T08:11:09.540Z,13.20
2023-03-10T08:14:19.140Z,15.60
2023-03-10T08:17:27.591Z,11.90
2023-03-10T08:20:34.706Z,13.50
2023-03-10T08:23:42.227Z,12.60
2023-03-10T08:26:49.734Z,14.70
2023-03-10T08:29:57.437Z,12.60
2023-03-10T08:33:06.032Z,12.10
2023-03-10T08:36:13.593Z,11.60
2023-03-10T08:39:21.268Z,13.40
2023-03-10T08:42:29.148Z,12.90
2023-03-10T08:45:36.170Z,11.10
2023-03-10T08:48:43.810Z,12.80
2023-03-10T08:51:51.691Z,13.10
2023-03-10T08:55:00.067Z,12.00
2023-03-10T08:58:07.936Z,10.70
2023-03-10T09:01:15.362Z,11.20
2023-03-10T09:04:22.761Z,10.10
2023-03-10T09:07:30.520Z,11.70
2023-03-10T09:10:37.876Z,11.30
2023-03-10T09:13:45.653Z,11.70
2023-03-10T09:16:53.485Z,11.80
2023-03-10T09:20:00.902Z,12.70
2023-03-10T09:23:08.307Z,11.80
2023-03-10T09:26:16.118Z,12.40
2023-03-10T09:29:41.791Z,10.00
2023-03-10T09:32:28.452Z,11.40
2023-03-10T09:35:41.617Z,9.80
2023-03-10T09:38:40.830Z,9.50
2023-03-10T09:41:48.370Z,10.70
2023-03-10T09:44:55.757Z,9.50
2023-03-10T09:48:04.803Z,7.80
2023-03-10T09:51:12.075Z,7.60
2023-03-10T09:54:19.724Z,7.60
2023-03-10T09:57:27.192Z,7.70
2023-03-10T10:00:34.255Z,7.20
2023-03-10T10:03:52.275Z,7.10
2023-03-10T10:06:48.514Z,8.50
2023-03-10T10:09:55.594Z,7.90
2023-03-10T10:13:03.110Z,7.00
2023-03-10T10:16:28.124Z,7.30
2023-03-10T10:19:15.294Z,6.30
2023-03-10T10:22:22.725Z,7.00
2023-03-10T10:25:30.111Z,5.10
2023-03-10T10:28:38.055Z,6.50
2023-03-10T10:31:45.134Z,6.60
2023-03-10T10:34:52.612Z,7.90
2023-03-10T10:38:00.649Z,6.40
2023-03-10T10:41:08.248Z,5.30
2023-03-10T10:44:16.198Z,4.90
2023-03-10T10:47:23.580Z,5.40
2023-03-10T10:50:30.941Z,5.90
2023-03-10T10:53:38.863Z,5.40
2023-03-10T10:56:46.025Z,6.50
2023-03-10T10:59:53.376Z,5.50
2023-03-10T11:03:01.317Z,7.00
2023-03-10T11:06:08.736Z,5.40
2023-03-10T11:09:16.703Z,5.60
2023-03-10T11:12:24.307Z,6.70
2023-03-10T11:15:31.740Z,7.20
2023-03-10T11:18:39.233Z,6.90
2023-03-10T11:21:46.288Z,6.20
2023-03-10T11:24:53.975Z,7.10
2023-03-10T11:28:01.344Z,5.30
2023-03-10T11:31:08.716Z,4.70
2023-03-10T11:34:16.130Z,4.50
2023-03-10T11:37:23.095Z,4.90
2023-03-10T11:40:30.746Z,6.70
2023-03-10T11:43:38.644Z,6.10
2023-03-10T11:46:45.580Z,5.20
2023-03-10T11:49:53.265Z,5.20
2023-03-10T11:53:01.180Z,5.40
2023-03-10T11:56:08.235Z,7.40
2023-03-10T11:59:16.117Z,8.20
2023-03-10T12:02:23.454Z,8.30
2023-03-10T12:05:30.903Z,6.50
2023-03-10T12:08:38.394Z,5.60
2023-03-10T12:11:45.646Z,5.80
2023-03-10T12:14:52.944Z,5.70
2023-03-10T12:18:00.248Z,4.60
2023-03-10T12:21:07.629Z,3.80
2023-03-10T12:24:14.858Z,4.90
2023-03-10T12:27:21.819Z,9.40
2023-03-10T12:30:29.567Z,4.00
2023-03-10T12:33:36.960Z,6.20
2023-03-10T12:36:43.978Z,5.10
2023-03-10T12:39:51.550Z,5.20
2023-03-10T12:42:58.990Z,3.80
2023-03-10T12:46:05.998Z,4.50
2023-03-10T12:49:13.488Z,7.80
2023-03-10T12:52:20.918Z,6.70
2023-03-10T12:55:28.239Z,4.30
2023-03-10T12:58:35.630Z,4.30
2023-03-10T13:01:55.156Z,4.30
2023-03-10T13:04:48.164Z,5.10
2023-03-10T13:07:55.451Z,5.20
2023-03-10T13:11:03.083Z,6.50
2023-03-10T13:14:10.658Z,6.10
2023-03-10T13:17:17.657Z,5.60
2023-03-10T13:20:25.651Z,5.20
2023-03-10T13:23:32.628Z,4.90
2023-03-10T13:26:40.274Z,5.20
2023-03-10T13:29:47.542Z,4.50
2023-03-10T13:32:54.900Z,5.00
2023-03-10T13:36:02.801Z,5.20
2023-03-10T13:39:10.093Z,4.50
2023-03-10T13:42:17.059Z,4.60
2023-03-10T13:45:24.674Z,3.50
2023-03-10T13:48:31.991Z,3.40
2023-03-10T13:51:39.481Z,2.70
2023-03-10T13:54:47.076Z,2.80
2023-03-10T13:57:54.336Z,2.60
2023-03-10T14:01:02.005Z,3.20
2023-03-10T14:04:09.294Z,3.30
2023-03-10T14:07:17.279Z,3.30
2023-03-10T14:10:24.884Z,2.70
2023-03-10T14:13:32.236Z,2.80
2023-03-10T14:16:40.022Z,2.90
2023-03-10T14:19:47.089Z,3.30
2023-03-10T14:22:54.764Z,3.60
2023-03-10T14:26:02.475Z,3.50
2023-03-10T14:29:09.501Z,3.30
2023-03-10T14:32:17.413Z,3.00
2023-03-10T14:35:24.774Z,3.20
2023-03-10T14:38:31.907Z,2.90
2023-03-10T14:41:39.550Z,3.10
2023-03-10T14:44:47.437Z,3.40
2023-03-10T14:47:54.755Z,3.40
2023-03-10T14:51:02.526Z,3.40
2023-03-10T14:54:10.215Z,3.70
2023-03-10T14:57:17.247Z,3.60
2023-03-10T15:00:25.379Z,3.70
2023-03-10T15:03:32.368Z,3.90
2023-03-10T15:06:39.933Z,4.30
2023-03-10T15:09:48.502Z,4.00
2023-03-10T15:12:57.051Z,4.70
2023-03-10T15:16:04.517Z,4.50
2023-03-10T15:19:12.304Z,5.10
2023-03-10T15:22:19.635Z,5.30
2023-03-10T15:25:27.030Z,5.20
2023-03-10T15:28:36.248Z,5.60
2023-03-10T15:31:43.455Z,5.00
2023-03-10T15:34:50.928Z,5.30
2023-03-10T15:37:58.157Z,4.60
2023-03-10T15:41:05.582Z,6.10
2023-03-10T15:44:12.922Z,4.80
2023-03-10T15:47:20.638Z,3.50
2023-03-10T15:50:28.157Z,3.80
2023-03-10T15:53:35.513Z,3.30
2023-03-10T15:56:43.435Z,5.60
2023-03-10T15:59:51.104Z,8.30
2023-03-10T16:02:58.462Z,5.30
2023-03-10T16:06:05.901Z,4.70
2023-03-10T16:09:12.932Z,5.80
2023-03-10T16:12:21.042Z,5.70
2023-03-10T16:15:28.841Z,5.80
2023-03-10T16:18:36.807Z,5.30
2023-03-10T16:21:44.282Z,5.40
2023-03-10T16:24:52.003Z,5.80
2023-03-10T16:27:59.110Z,4.80
2023-03-10T16:31:06.828Z,5.30
2023-03-10T16:34:14.158Z,6.20
2023-03-10T16:37:21.522Z,6.10
2023-03-10T16:40:29.320Z,5.60
2023-03-10T16:43:36.503Z,5.30
2023-03-10T16:46:43.878Z,7.40
2023-03-10T16:49:52.770Z,6.70
2023-03-10T16:52:59.948Z,8.40
2023-03-10T16:56:07.642Z,6.80
2023-03-10T16:59:16.996Z,7.40
2023-03-10T17:02:25.791Z,8.20
2023-03-10T17:05:33.194Z,15.60
2023-03-10T17:08:41.127Z,8.50
2023-03-10T17:11:49.277Z,8.90
2023-03-10T17:14:57.319Z,7.90
2023-03-10T17:18:04.574Z,9.30
2023-03-10T17:21:12.326Z,8.70
2023-03-10T17:24:19.589Z,8.90
2023-03-10T17:27:26.989Z,8.70
2023-03-10T17:30:34.858Z,9.10
2023-03-10T17:33:42.588Z,9.20
2023-03-10T17:36:42.484Z,7.40
2023-03-10T17:39:50.251Z,8.90
2023-03-10T17:42:59.879Z,9.50
2023-03-10T17:46:01.072Z,9.60
2023-03-10T17:49:08.537Z,8.50
2023-03-10T17:52:15.674Z,9.50
2023-03-10T17:55:23.527Z,9.70
2023-03-10T17:58:30.726Z,10.10
2023-03-10T18:01:38.372Z,11.60
2023-03-10T18:04:46.479Z,11.30
2023-03-10T18:07:53.994Z,10.50
2023-03-10T18:11:01.969Z,10.40
2023-03-10T18:14:09.664Z,11.10
2023-03-10T18:17:17.788Z,11.60
2023-03-10T18:20:24.962Z,12.30
2023-03-10T18:23:33.139Z,12.30
2023-03-10T18:26:40.946Z,11.50
2023-03-10T18:29:48.572Z,11.40
2023-03-10T18:32:56.245Z,11.00
2023-03-10T18:36:03.783Z,10.60
2023-03-10T18:39:11.344Z,11.30
2023-03-10T18:42:18.832Z,9.00
2023-03-10T18:45:26.472Z,10.40
2023-03-10T18:48:34.553Z,11.90
2023-03-10T18:51:42.935Z,11.70
2023-03-10T18:54:50.647Z,11.80
2023-03-10T18:57:59.051Z,11.40
2023-03-10T19:01:07.012Z,9.30
2023-03-10T19:04:14.643Z,9.80
2023-03-10T19:07:22.319Z,12.20
2023-03-10T19:10:30.026Z,11.20
2023-03-10T19:13:37.646Z,10.30
2023-03-10T19:16:45.207Z,10.70
2023-03-10T19:19:53.232Z,11.10
2023-03-10T19:23:00.444Z,10.40
2023-03-10T19:26:08.245Z,11.00
2023-03-10T19:29:16.355Z,12.10
2023-03-10T19:32:23.602Z,13.40
2023-03-10T19:35:31.368Z,12.20
2023-03-10T19:38:39.201Z,11.20
2023-03-10T19:41:46.392Z,11.90
2023-03-10T19:44:54.352Z,12.50
2023-03-10T19:48:01.968Z,23.50
2023-03-10T19:51:09.778Z,11.40
2023-03-10T19:54:17.353Z,19.30
2023-03-10T19:57:24.976Z,16.20
2023-03-10T20:00:32.421Z,13.70
2023-03-10T20:03:40.217Z,13.80
2023-03-10T20:06:47.654Z,13.70
2023-03-10T20:09:55.329Z,13.20
2023-03-10T20:13:03.031Z,13.30
2023-03-10T20:16:10.200Z,12.90
2023-03-10T20:19:17.537Z,12.30
2023-03-10T20:22:24.876Z,11.90
2023-03-10T20:25:32.410Z,11.50
2023-03-10T20:28:40.102Z,11.70
2023-03-10T20:31:47.347Z,12.90
2023-03-10T20:34:54.937Z,13.80
2023-03-10T20:38:02.768Z,14.20
2023-03-10T20:41:10.186Z,15.50
2023-03-10T20:44:17.654Z,15.60
2023-03-10T20:47:25.223Z,13.30
2023-03-10T20:50:33.206Z,13.30
2023-03-10T20:53:41.042Z,13.20
2023-03-10T20:56:48.618Z,12.20
2023-03-10T20:59:56.543Z,12.00
2023-03-10T21:03:04.105Z,10.30
2023-03-10T21:06:11.928Z,11.90
2023-03-10T21:09:19.856Z,10.30
2023-03-10T21:12:26.928Z,10.90
2023-03-10T21:15:34.758Z,9.50
2023-03-10T21:18:42.694Z,6.90
2023-03-10T21:21:49.967Z,8.00
2023-03-10T21:24:57.765Z,7.30
2023-03-10T21:28:05.742Z,7.10
2023-03-10T21:31:13.009Z,5.40
2023-03-10T21:34:21.020Z,5.90
2023-03-10T21:37:28.483Z,5.30
2023-03-10T21:40:36.110Z,4.30
2023-03-10T21:43:43.975Z,4.10
2023-03-10T21:46:51.386Z,4.30
2023-03-10T21:49:58.887Z,4.70
2023-03-10T21:53:06.759Z,4.20
2023-03-10T21:56:14.188Z,5.40
2023-03-10T21:59:21.758Z,6.30
2023-03-10T22:02:29.339Z,6.00
2023-03-10T22:05:36.772Z,8.20
2023-03-10T22:08:44.437Z,8.50
2023-03-10T22:11:51.710Z,8.60
2023-03-10T22:14:59.795Z,8.10
2023-03-10T22:18:07.247Z,9.00
2023-03-10T22:21:14.428Z,8.40
2023-03-10T22:24:22.314Z,7.70
2023-03-10T22:27:29.733Z,9.80
2023-03-10T22:30:37.419Z,10.20
2023-03-10T22:33:45.407Z,9.30
2023-03-10T22:36:52.625Z,10.60
2023-03-10T22:40:00.216Z,6.60
2023-03-10T22:43:07.940Z,8.90
2023-03-10T22:46:15.219Z,11.60
2023-03-10T22:49:23.010Z,9.50
2023-03-10T22:52:30.856Z,10.10
2023-03-10T22:55:37.988Z,11.60
2023-03-10T22:58:46.090Z,10.80
2023-03-10T23:01:53.750Z,10.50
2023-03-10T23:05:02.112Z,12.00
2023-03-10T23:08:10.335Z,11.70
2023-03-10T23:11:17.884Z,11.90
2023-03-10T23:14:25.511Z,14.40
2023-03-10T23:17:33.786Z,11.40
2023-03-10T23:20:40.806Z,12.30
2023-03-10T23:23:48.317Z,13.00
2023-03-10T23:26:56.326Z,10.90
2023-03-10T23:30:03.424Z,13.60
2023-03-10T23:33:11.249Z,12.60
2023-03-10T23:36:18.793Z,11.70
2023-03-10T23:39:26.291Z,14.20
2023-03-10T23:42:34.152Z,10.60
2023-03-10T23:45:41.640Z,15.20
2023-03-10T23:48:49.128Z,12.10
2023-03-10T23:51:57.060Z,15.60
2023-03-10T23:55:04.666Z,12.60
2023-03-10T23:58:12.366Z,13.90
